sensor_id;sensor_type;location;lat;lon;timestamp;pressure;altitude;pressure_sealevel;temperature;humidity
70015;BME280;57358;51.094;6.760;2022-10-26T00:00:48;101005.00;;;10.17;100.00
70015;BME280;57358;51.094;6.760;2022-10-26T00:03:15;101049.53;;;10.58;100.00
70015;BME280;57358;51.094;6.760;2022-10-26T00:05:42;101014.91;;;10.31;100.00
70015;BME280;57358;51.094;6.760;2022-10-26T00:08:09;101015.47;;;10.38;100.00
70015;BME280;57358;51.094;6.760;2022-10-26T00:10:36;100959.09;;;10.09;100.00
70015;BME280;57358;51.094;6.760;2022-10-26T00:13:04;101058.72;;;10.67;100.00
70015;BME280;57358;51.094;6.760;2022-10-26T00:15:31;101049.84;;;10.70;100.00
70015;BME280;57358;51.094;6.760;2022-10-26T00:17:57;101020.66;;;10.58;100.00
70015;BME280;57358;51.094;6.760;2022-10-26T00:20:23;101010.22;;;10.57;100.00
70015;BME280;57358;51.094;6.760;2022-10-26T00:22:50;100982.13;;;10.40;100.00
70015;BME280;57358;51.094;6.760;2022-10-26T00:25:16;100967.25;;;10.41;100.00
70015;BME280;57358;51.094;6.760;2022-10-26T00:27:42;100921.31;;;10.13;100.00
70015;BME280;57358;51.094;6.760;2022-10-26T00:30:09;100987.78;;;10.50;100.00
70015;BME280;57358;51.094;6.760;2022-10-26T00:32:35;100975.91;;;10.43;100.00
70015;BME280;57358;51.094;6.760;2022-10-26T00:35:02;101027.59;;;10.78;100.00
70015;BME280;57358;51.094;6.760;2022-10-26T00:37:48;101017.56;;;10.68;100.00
70015;BME280;57358;51.094;6.760;2022-10-26T00:40:15;101034.22;;;10.86;100.00
70015;BME280;57358;51.094;6.760;2022-10-26T00:42:41;101029.91;;;10.85;100.00
70015;BME280;57358;51.094;6.760;2022-10-26T00:45:28;101040.31;;;10.86;100.00
70015;BME280;57358;51.094;6.760;2022-10-26T00:48:00;101016.50;;;10.72;100.00
70015;BME280;57358;51.094;6.760;2022-10-26T00:50:31;101040.25;;;10.88;100.00
70015;BME280;57358;51.094;6.760;2022-10-26T00:52:59;101021.31;;;10.81;100.00
70015;BME280;57358;51.094;6.760;2022-10-26T00:55:32;101038.41;;;10.90;100.00
70015;BME280;57358;51.094;6.760;2022-10-26T00:58:01;101037.31;;;10.94;100.00
70015;BME280;57358;51.094;6.760;2022-10-26T01:00:29;100941.03;;;10.41;100.00
70015;BME280;57358;51.094;6.760;2022-10-26T01:02:59;100965.44;;;10.60;100.00
70015;BME280;57358;51.094;6.760;2022-10-26T01:05:26;101030.69;;;11.04;100.00
70015;BME280;57358;51.094;6.760;2022-10-26T01:07:53;101031.47;;;11.06;100.00
70015;BME280;57358;51.094;6.760;2022-10-26T01:10:20;101049.00;;;11.06;100.00
70015;BME280;57358;51.094;6.760;2022-10-26T01:12:46;100882.19;;;10.08;100.00
70015;BME280;57358;51.094;6.760;2022-10-26T01:15:13;101007.84;;;10.89;100.00
70015;BME280;57358;51.094;6.760;2022-10-26T01:17:52;101020.91;;;11.08;100.00
70015;BME280;57358;51.094;6.760;2022-10-26T01:23:14;100888.75;;;10.36;100.00
70015;BME280;57358;51.094;6.760;2022-10-26T01:29:10;101009.00;;;11.18;100.00
70015;BME280;57358;51.094;6.760;2022-10-26T01:31:58;100922.56;;;10.78;100.00
70015;BME280;57358;51.094;6.760;2022-10-26T01:34:33;101010.19;;;11.30;100.00
70015;BME280;57358;51.094;6.760;2022-10-26T01:37:10;101002.13;;;11.15;100.00
70015;BME280;57358;51.094;6.760;2022-10-26T01:39:43;101012.03;;;11.28;100.00
70015;BME280;57358;51.094;6.760;2022-10-26T01:42:15;100962.59;;;11.01;100.00
70015;BME280;57358;51.094;6.760;2022-10-26T01:44:48;101006.53;;;11.32;100.00
70015;BME280;57358;51.094;6.760;2022-10-26T01:47:19;100908.66;;;10.76;100.00
70015;BME280;57358;51.094;6.760;2022-10-26T01:49:50;100901.78;;;10.74;100.00
70015;BME280;57358;51.094;6.760;2022-10-26T01:52:18;100981.59;;;11.24;100.00
70015;BME280;57358;51.094;6.760;2022-10-26T01:54:45;101000.50;;;11.30;100.00
70015;BME280;57358;51.094;6.760;2022-10-26T01:57:13;100952.63;;;11.08;100.00
70015;BME280;57358;51.094;6.760;2022-10-26T02:00:03;100971.47;;;11.16;100.00
70015;BME280;57358;51.094;6.760;2022-10-26T02:08:21;100990.56;;;11.37;100.00
70015;BME280;57358;51.094;6.760;2022-10-26T02:11:12;100987.75;;;11.40;100.00
70015;BME280;57358;51.094;6.760;2022-10-26T02:14:04;100991.25;;;11.41;100.00
70015;BME280;57358;51.094;6.760;2022-10-26T02:19:21;100900.00;;;10.92;100.00
70015;BME280;57358;51.094;6.760;2022-10-26T02:21:56;100964.34;;;11.35;100.00
70015;BME280;57358;51.094;6.760;2022-10-26T02:24:26;100946.03;;;11.34;100.00
70015;BME280;57358;51.094;6.760;2022-10-26T02:26:55;100944.34;;;11.33;100.00
70015;BME280;57358;51.094;6.760;2022-10-26T02:29:22;100979.53;;;11.64;100.00
70015;BME280;57358;51.094;6.760;2022-10-26T02:31:50;100960.84;;;11.52;100.00
70015;BME280;57358;51.094;6.760;2022-10-26T02:34:20;100869.25;;;11.11;100.00
70015;BME280;57358;51.094;6.760;2022-10-26T02:36:49;100977.09;;;11.76;100.00
70015;BME280;57358;51.094;6.760;2022-10-26T02:39:19;100971.19;;;11.73;100.00
70015;BME280;57358;51.094;6.760;2022-10-26T02:41:47;100900.66;;;11.30;100.00
70015;BME280;57358;51.094;6.760;2022-10-26T02:47:32;100910.09;;;11.34;100.00
70015;BME280;57358;51.094;6.760;2022-10-26T02:49:59;100862.53;;;11.06;100.00
70015;BME280;57358;51.094;6.760;2022-10-26T02:57:46;100921.38;;;11.36;100.00
70015;BME280;57358;51.094;6.760;2022-10-26T03:00:17;100977.22;;;11.75;100.00
70015;BME280;57358;51.094;6.760;2022-10-26T03:02:50;100973.63;;;11.76;100.00
70015;BME280;57358;51.094;6.760;2022-10-26T03:05:26;100971.78;;;11.78;100.00
70015;BME280;57358;51.094;6.760;2022-10-26T03:07:53;100966.28;;;11.83;100.00
70015;BME280;57358;51.094;6.760;2022-10-26T03:10:21;100926.34;;;11.58;100.00
70015;BME280;57358;51.094;6.760;2022-10-26T03:12:47;100941.28;;;11.58;100.00
70015;BME280;57358;51.094;6.760;2022-10-26T03:15:14;100950.22;;;11.71;100.00
70015;BME280;57358;51.094;6.760;2022-10-26T03:17:41;100911.38;;;11.61;100.00
70015;BME280;57358;51.094;6.760;2022-10-26T03:20:08;100961.25;;;11.95;100.00
70015;BME280;57358;51.094;6.760;2022-10-26T03:22:34;100885.72;;;11.48;100.00
70015;BME280;57358;51.094;6.760;2022-10-26T03:25:01;100958.00;;;11.90;100.00
70015;BME280;57358;51.094;6.760;2022-10-26T03:27:27;100856.88;;;11.31;100.00
70015;BME280;57358;51.094;6.760;2022-10-26T03:29:55;100944.38;;;11.82;100.00
70015;BME280;57358;51.094;6.760;2022-10-26T03:32:21;100816.44;;;11.00;100.00
70015;BME280;57358;51.094;6.760;2022-10-26T03:34:47;100910.75;;;11.55;100.00
70015;BME280;57358;51.094;6.760;2022-10-26T03:37:13;100945.25;;;11.83;100.00
70015;BME280;57358;51.094;6.760;2022-10-26T03:39:40;100953.28;;;11.97;100.00
70015;BME280;57358;51.094;6.760;2022-10-26T03:42:06;100926.66;;;11.70;100.00
70015;BME280;57358;51.094;6.760;2022-10-26T03:44:33;100958.44;;;11.98;100.00
70015;BME280;57358;51.094;6.760;2022-10-26T03:46:59;100932.66;;;11.72;100.00
70015;BME280;57358;51.094;6.760;2022-10-26T03:49:25;100843.44;;;11.20;100.00
70015;BME280;57358;51.094;6.760;2022-10-26T03:51:52;100956.75;;;11.97;100.00
70015;BME280;57358;51.094;6.760;2022-10-26T03:54:18;100922.16;;;11.72;100.00
70015;BME280;57358;51.094;6.760;2022-10-26T03:56:44;100926.75;;;11.84;100.00
70015;BME280;57358;51.094;6.760;2022-10-26T03:59:16;100872.09;;;11.57;100.00
70015;BME280;57358;51.094;6.760;2022-10-26T04:01:42;100950.91;;;12.08;100.00
70015;BME280;57358;51.094;6.760;2022-10-26T04:04:09;100896.28;;;11.80;100.00
70015;BME280;57358;51.094;6.760;2022-10-26T04:06:35;100856.03;;;11.46;100.00
70015;BME280;57358;51.094;6.760;2022-10-26T04:09:02;100892.41;;;11.87;100.00
70015;BME280;57358;51.094;6.760;2022-10-26T04:11:29;100941.16;;;12.26;100.00
70015;BME280;57358;51.094;6.760;2022-10-26T04:14:18;100840.22;;;11.64;100.00
70015;BME280;57358;51.094;6.760;2022-10-26T04:16:45;100868.81;;;11.86;100.00
70015;BME280;57358;51.094;6.760;2022-10-26T04:19:11;100946.34;;;12.44;100.00
70015;BME280;57358;51.094;6.760;2022-10-26T04:21:38;100959.66;;;12.41;100.00
70015;BME280;57358;51.094;6.760;2022-10-26T04:24:04;100927.75;;;12.15;100.00
70015;BME280;57358;51.094;6.760;2022-10-26T04:26:31;100903.91;;;12.02;100.00
70015;BME280;57358;51.094;6.760;2022-10-26T04:28:57;100964.00;;;12.42;100.00
70015;BME280;57358;51.094;6.760;2022-10-26T04:31:23;100936.91;;;12.24;100.00
70015;BME280;57358;51.094;6.760;2022-10-26T04:33:50;100878.50;;;11.85;100.00
70015;BME280;57358;51.094;6.760;2022-10-26T04:36:16;100957.56;;;12.31;100.00
70015;BME280;57358;51.094;6.760;2022-10-26T04:38:43;100960.25;;;12.30;100.00
70015;BME280;57358;51.094;6.760;2022-10-26T04:41:09;100956.19;;;12.24;100.00
70015;BME280;57358;51.094;6.760;2022-10-26T04:43:35;100916.53;;;11.95;100.00
70015;BME280;57358;51.094;6.760;2022-10-26T04:46:02;100963.91;;;12.27;100.00
70015;BME280;57358;51.094;6.760;2022-10-26T04:48:28;100888.66;;;11.75;100.00
70015;BME280;57358;51.094;6.760;2022-10-26T04:50:58;100917.94;;;11.85;100.00
70015;BME280;57358;51.094;6.760;2022-10-26T04:53:25;100896.91;;;11.85;100.00
70015;BME280;57358;51.094;6.760;2022-10-26T04:55:58;100869.91;;;11.66;100.00
70015;BME280;57358;51.094;6.760;2022-10-26T04:58:25;100960.53;;;12.25;100.00
70015;BME280;57358;51.094;6.760;2022-10-26T05:00:52;100919.75;;;12.01;100.00
70015;BME280;57358;51.094;6.760;2022-10-26T05:03:19;100964.69;;;12.29;100.00
70015;BME280;57358;51.094;6.760;2022-10-26T05:05:46;100863.53;;;11.70;100.00
70015;BME280;57358;51.094;6.760;2022-10-26T05:08:15;100959.84;;;12.37;100.00
70015;BME280;57358;51.094;6.760;2022-10-26T05:10:42;100965.09;;;12.37;100.00
70015;BME280;57358;51.094;6.760;2022-10-26T05:13:09;100956.19;;;12.40;100.00
70015;BME280;57358;51.094;6.760;2022-10-26T05:15:35;100909.91;;;12.20;100.00
70015;BME280;57358;51.094;6.760;2022-10-26T05:18:03;100960.25;;;12.46;100.00
70015;BME280;57358;51.094;6.760;2022-10-26T05:20:34;100913.09;;;12.27;100.00
70015;BME280;57358;51.094;6.760;2022-10-26T05:23:03;100933.53;;;12.22;100.00
70015;BME280;57358;51.094;6.760;2022-10-26T05:25:31;100939.56;;;12.40;100.00
70015;BME280;57358;51.094;6.760;2022-10-26T05:28:09;100896.69;;;12.06;100.00
70015;BME280;57358;51.094;6.760;2022-10-26T05:30:41;100962.47;;;12.53;100.00
70015;BME280;57358;51.094;6.760;2022-10-26T05:33:09;100948.69;;;12.48;100.00
70015;BME280;57358;51.094;6.760;2022-10-26T05:35:36;100950.16;;;12.54;100.00
70015;BME280;57358;51.094;6.760;2022-10-26T05:38:11;100771.59;;;11.52;100.00
70015;BME280;57358;51.094;6.760;2022-10-26T05:40:38;100947.59;;;12.52;100.00
70015;BME280;57358;51.094;6.760;2022-10-26T05:43:04;100933.25;;;12.58;100.00
70015;BME280;57358;51.094;6.760;2022-10-26T05:45:30;100892.03;;;12.27;100.00
70015;BME280;57358;51.094;6.760;2022-10-26T05:47:57;100830.97;;;11.88;100.00
70015;BME280;57358;51.094;6.760;2022-10-26T05:50:28;100945.66;;;12.56;100.00
70015;BME280;57358;51.094;6.760;2022-10-26T05:52:54;100946.59;;;12.55;100.00
70015;BME280;57358;51.094;6.760;2022-10-26T05:55:21;100883.47;;;12.07;100.00
70015;BME280;57358;51.094;6.760;2022-10-26T05:57:48;100954.84;;;12.49;100.00
70015;BME280;57358;51.094;6.760;2022-10-26T06:00:20;100953.97;;;12.32;100.00
70015;BME280;57358;51.094;6.760;2022-10-26T06:03:07;100975.09;;;12.47;100.00
70015;BME280;57358;51.094;6.760;2022-10-26T06:05:50;100950.56;;;12.30;100.00
70015;BME280;57358;51.094;6.760;2022-10-26T06:08:18;100984.63;;;12.49;100.00
70015;BME280;57358;51.094;6.760;2022-10-26T06:10:46;100976.66;;;12.51;100.00
70015;BME280;57358;51.094;6.760;2022-10-26T06:13:13;100981.75;;;12.54;100.00
70015;BME280;57358;51.094;6.760;2022-10-26T06:15:54;100986.09;;;12.55;100.00
70015;BME280;57358;51.094;6.760;2022-10-26T06:24:20;100983.34;;;12.56;100.00
70015;BME280;57358;51.094;6.760;2022-10-26T06:30:02;100894.13;;;12.20;100.00
70015;BME280;57358;51.094;6.760;2022-10-26T06:32:29;100952.28;;;12.63;100.00
70015;BME280;57358;51.094;6.760;2022-10-26T06:35:19;100965.84;;;12.71;100.00
70015;BME280;57358;51.094;6.760;2022-10-26T06:37:49;100972.41;;;12.94;100.00
70015;BME280;57358;51.094;6.760;2022-10-26T06:40:17;100965.47;;;12.93;100.00
70015;BME280;57358;51.094;6.760;2022-10-26T06:42:44;100971.31;;;12.98;100.00
70015;BME280;57358;51.094;6.760;2022-10-26T06:45:14;100955.78;;;12.94;100.00
70015;BME280;57358;51.094;6.760;2022-10-26T06:47:55;100967.19;;;13.09;100.00
70015;BME280;57358;51.094;6.760;2022-10-26T06:55:30;100842.03;;;12.27;100.00
70015;BME280;57358;51.094;6.760;2022-10-26T06:58:02;100895.09;;;12.65;100.00
70015;BME280;57358;51.094;6.760;2022-10-26T07:00:30;100974.25;;;13.08;100.00
70015;BME280;57358;51.094;6.760;2022-10-26T07:02:57;100844.66;;;12.27;100.00
70015;BME280;57358;51.094;6.760;2022-10-26T07:05:25;100933.13;;;12.75;100.00
70015;BME280;57358;51.094;6.760;2022-10-26T07:07:51;100998.22;;;13.20;100.00
70015;BME280;57358;51.094;6.760;2022-10-26T07:10:18;100960.50;;;13.03;100.00
70015;BME280;57358;51.094;6.760;2022-10-26T07:12:44;100878.44;;;12.65;100.00
70015;BME280;57358;51.094;6.760;2022-10-26T07:15:11;100952.66;;;13.17;100.00
70015;BME280;57358;51.094;6.760;2022-10-26T07:17:44;100963.50;;;13.27;100.00
70015;BME280;57358;51.094;6.760;2022-10-26T07:20:12;101007.94;;;13.64;100.00
70015;BME280;57358;51.094;6.760;2022-10-26T07:22:39;100950.91;;;13.32;100.00
70015;BME280;57358;51.094;6.760;2022-10-26T07:25:06;101011.44;;;13.79;100.00
70015;BME280;57358;51.094;6.760;2022-10-26T07:27:33;100976.56;;;13.59;100.00
70015;BME280;57358;51.094;6.760;2022-10-26T07:30:00;100970.19;;;13.63;100.00
70015;BME280;57358;51.094;6.760;2022-10-26T07:32:30;100984.00;;;13.67;100.00
70015;BME280;57358;51.094;6.760;2022-10-26T07:34:56;100982.88;;;13.71;100.00
70015;BME280;57358;51.094;6.760;2022-10-26T07:37:23;101028.59;;;14.00;100.00
70015;BME280;57358;51.094;6.760;2022-10-26T07:39:49;100995.97;;;13.72;100.00
70015;BME280;57358;51.094;6.760;2022-10-26T07:42:15;101011.63;;;13.90;100.00
70015;BME280;57358;51.094;6.760;2022-10-26T07:44:42;101021.06;;;14.08;100.00
70015;BME280;57358;51.094;6.760;2022-10-26T07:47:08;101013.72;;;14.13;100.00
70015;BME280;57358;51.094;6.760;2022-10-26T07:49:35;100957.16;;;13.89;100.00
70015;BME280;57358;51.094;6.760;2022-10-26T07:52:01;101033.69;;;14.32;100.00
70015;BME280;57358;51.094;6.760;2022-10-26T07:54:31;100998.72;;;14.14;100.00
70015;BME280;57358;51.094;6.760;2022-10-26T07:56:57;101034.50;;;14.32;100.00
70015;BME280;57358;51.094;6.760;2022-10-26T07:59:24;100998.88;;;14.11;100.00
70015;BME280;57358;51.094;6.760;2022-10-26T08:01:51;101022.94;;;14.21;100.00
70015;BME280;57358;51.094;6.760;2022-10-26T08:04:18;101043.75;;;14.40;100.00
70015;BME280;57358;51.094;6.760;2022-10-26T08:06:44;101002.09;;;14.16;100.00
70015;BME280;57358;51.094;6.760;2022-10-26T08:09:10;100982.78;;;14.15;100.00
70015;BME280;57358;51.094;6.760;2022-10-26T08:11:37;101052.59;;;14.53;100.00
70015;BME280;57358;51.094;6.760;2022-10-26T08:14:03;101060.16;;;14.59;100.00
70015;BME280;57358;51.094;6.760;2022-10-26T08:16:30;101059.22;;;14.60;100.00
70015;BME280;57358;51.094;6.760;2022-10-26T08:18:56;100993.13;;;14.19;100.00
70015;BME280;57358;51.094;6.760;2022-10-26T08:21:23;101064.28;;;14.63;100.00
70015;BME280;57358;51.094;6.760;2022-10-26T08:24:05;101049.31;;;14.49;100.00
70015;BME280;57358;51.094;6.760;2022-10-26T08:26:31;101078.44;;;14.76;100.00
70015;BME280;57358;51.094;6.760;2022-10-26T08:29:01;101078.13;;;14.81;100.00
70015;BME280;57358;51.094;6.760;2022-10-26T08:31:29;101056.09;;;14.68;100.00
70015;BME280;57358;51.094;6.760;2022-10-26T08:33:56;101088.91;;;15.05;100.00
70015;BME280;57358;51.094;6.760;2022-10-26T08:36:24;101032.59;;;14.78;100.00
70015;BME280;57358;51.094;6.760;2022-10-26T08:38:51;101028.31;;;14.89;100.00
70015;BME280;57358;51.094;6.760;2022-10-26T08:41:26;100999.09;;;14.78;100.00
70015;BME280;57358;51.094;6.760;2022-10-26T08:44:02;101038.06;;;15.02;100.00
70015;BME280;57358;51.094;6.760;2022-10-26T08:46:35;101017.28;;;14.83;100.00
70015;BME280;57358;51.094;6.760;2022-10-26T08:49:10;101034.44;;;14.90;100.00
70015;BME280;57358;51.094;6.760;2022-10-26T08:51:42;101081.88;;;15.06;100.00
70015;BME280;57358;51.094;6.760;2022-10-26T08:54:13;101081.28;;;15.01;100.00
70015;BME280;57358;51.094;6.760;2022-10-26T08:56:54;101074.03;;;15.04;100.00
70015;BME280;57358;51.094;6.760;2022-10-26T08:59:30;101032.81;;;14.60;100.00
70015;BME280;57358;51.094;6.760;2022-10-26T09:01:59;101065.63;;;14.70;100.00
70015;BME280;57358;51.094;6.760;2022-10-26T09:04:31;101112.13;;;15.14;100.00
70015;BME280;57358;51.094;6.760;2022-10-26T09:07:07;101126.09;;;15.44;100.00
70015;BME280;57358;51.094;6.760;2022-10-26T09:15:31;101098.72;;;15.18;100.00
70015;BME280;57358;51.094;6.760;2022-10-26T09:18:14;101129.28;;;15.49;100.00
70015;BME280;57358;51.094;6.760;2022-10-26T09:21:00;101137.47;;;15.59;100.00
70015;BME280;57358;51.094;6.760;2022-10-26T09:26:32;101141.78;;;15.74;100.00
70015;BME280;57358;51.094;6.760;2022-10-26T09:29:09;101002.09;;;14.99;100.00
70015;BME280;57358;51.094;6.760;2022-10-26T09:31:46;101150.59;;;16.13;100.00
70015;BME280;57358;51.094;6.760;2022-10-26T09:34:48;101152.28;;;16.40;100.00
70015;BME280;57358;51.094;6.760;2022-10-26T09:37:22;101115.34;;;16.38;100.00
70015;BME280;57358;51.094;6.760;2022-10-26T09:39:57;101152.38;;;16.77;100.00
70015;BME280;57358;51.094;6.760;2022-10-26T09:42:42;101155.16;;;16.88;100.00
70015;BME280;57358;51.094;6.760;2022-10-26T09:45:24;101118.56;;;16.80;100.00
70015;BME280;57358;51.094;6.760;2022-10-26T09:47:53;101130.28;;;17.02;99.39
70015;BME280;57358;51.094;6.760;2022-10-26T09:50:28;101065.91;;;16.63;98.22
70015;BME280;57358;51.094;6.760;2022-10-26T09:52:58;101113.06;;;17.07;97.79
70015;BME280;57358;51.094;6.760;2022-10-26T09:55:24;101091.66;;;17.10;96.79
70015;BME280;57358;51.094;6.760;2022-10-26T09:57:55;101150.03;;;17.46;95.63
70015;BME280;57358;51.094;6.760;2022-10-26T10:00:24;101168.75;;;17.68;94.88
70015;BME280;57358;51.094;6.760;2022-10-26T10:02:52;101152.19;;;17.65;94.46
70015;BME280;57358;51.094;6.760;2022-10-26T10:05:30;101154.53;;;17.81;93.46
70015;BME280;57358;51.094;6.760;2022-10-26T10:08:20;101156.19;;;17.94;92.83
70015;BME280;57358;51.094;6.760;2022-10-26T10:11:11;101140.63;;;18.01;92.71
70015;BME280;57358;51.094;6.760;2022-10-26T10:13:41;101169.75;;;18.25;92.32
70015;BME280;57358;51.094;6.760;2022-10-26T10:16:19;101034.75;;;17.50;91.02
70015;BME280;57358;51.094;6.760;2022-10-26T10:19:05;101104.66;;;18.08;90.84
70015;BME280;57358;51.094;6.760;2022-10-26T10:21:38;101183.94;;;18.60;89.85
70015;BME280;57358;51.094;6.760;2022-10-26T10:29:26;101160.63;;;18.86;87.77
70015;BME280;57358;51.094;6.760;2022-10-26T10:31:58;101182.34;;;19.13;87.59
70015;BME280;57358;51.094;6.760;2022-10-26T10:34:31;101134.97;;;18.96;87.44
70015;BME280;57358;51.094;6.760;2022-10-26T10:37:01;101104.78;;;18.86;87.83
70015;BME280;57358;51.094;6.760;2022-10-26T10:39:39;101147.66;;;19.15;86.46
70015;BME280;57358;51.094;6.760;2022-10-26T10:42:15;101180.13;;;19.41;87.20
70015;BME280;57358;51.094;6.760;2022-10-26T10:44:43;101200.72;;;19.60;86.19
70015;BME280;57358;51.094;6.760;2022-10-26T10:47:21;101182.38;;;19.46;86.20
70015;BME280;57358;51.094;6.760;2022-10-26T10:49:59;101130.34;;;19.21;84.86
70015;BME280;57358;51.094;6.760;2022-10-26T10:52:30;101137.81;;;19.27;85.32
70015;BME280;57358;51.094;6.760;2022-10-26T10:58:02;101209.91;;;19.79;85.98
70015;BME280;57358;51.094;6.760;2022-10-26T11:00:35;101135.66;;;19.53;85.27
70015;BME280;57358;51.094;6.760;2022-10-26T11:03:23;101199.28;;;20.00;84.63
70015;BME280;57358;51.094;6.760;2022-10-26T11:06:04;101212.53;;;20.32;84.63
70015;BME280;57358;51.094;6.760;2022-10-26T11:08:43;101208.09;;;20.42;82.52
70015;BME280;57358;51.094;6.760;2022-10-26T11:13:57;101162.16;;;20.29;80.63
70015;BME280;57358;51.094;6.760;2022-10-26T11:16:33;101152.66;;;20.36;79.89
70015;BME280;57358;51.094;6.760;2022-10-26T11:19:17;101146.00;;;20.30;79.20
70015;BME280;57358;51.094;6.760;2022-10-26T11:21:49;101202.59;;;20.86;78.75
70015;BME280;57358;51.094;6.760;2022-10-26T11:26:57;101192.00;;;21.05;77.44
70015;BME280;57358;51.094;6.760;2022-10-26T11:29:46;101207.00;;;21.06;76.97
70015;BME280;57358;51.094;6.760;2022-10-26T11:32:27;101183.94;;;20.96;77.69
70015;BME280;57358;51.094;6.760;2022-10-26T11:35:14;101204.97;;;20.79;77.11
70015;BME280;57358;51.094;6.760;2022-10-26T11:46:09;101204.78;;;21.11;77.21
70015;BME280;57358;51.094;6.760;2022-10-26T11:48:54;101191.50;;;21.31;77.53
70015;BME280;57358;51.094;6.760;2022-10-26T11:54:20;101205.03;;;21.68;76.71
70015;BME280;57358;51.094;6.760;2022-10-26T11:56:52;101206.03;;;21.67;75.67
70015;BME280;57358;51.094;6.760;2022-10-26T11:59:21;101173.78;;;21.40;74.61
70015;BME280;57358;51.094;6.760;2022-10-26T12:02:01;101211.63;;;21.64;74.62
70015;BME280;57358;51.094;6.760;2022-10-26T12:04:32;101162.50;;;21.17;74.71
70015;BME280;57358;51.094;6.760;2022-10-26T12:07:01;101202.03;;;21.42;73.74
70015;BME280;57358;51.094;6.760;2022-10-26T12:09:32;101143.38;;;21.02;74.05
70015;BME280;57358;51.094;6.760;2022-10-26T12:14:57;101175.31;;;21.23;73.63
70015;BME280;57358;51.094;6.760;2022-10-26T12:18:25;101182.19;;;21.25;74.14
70015;BME280;57358;51.094;6.760;2022-10-26T12:20:53;101223.38;;;21.32;75.44
70015;BME280;57358;51.094;6.760;2022-10-26T12:23:21;101163.41;;;20.86;74.97
70015;BME280;57358;51.094;6.760;2022-10-26T12:34:12;101214.09;;;21.27;75.40
70015;BME280;57358;51.094;6.760;2022-10-26T12:36:46;101241.59;;;21.58;74.89
70015;BME280;57358;51.094;6.760;2022-10-26T12:39:34;101229.63;;;21.52;74.44
70015;BME280;57358;51.094;6.760;2022-10-26T12:44:59;101246.22;;;21.56;74.77
70015;BME280;57358;51.094;6.760;2022-10-26T12:58:00;101164.63;;;20.72;73.93
70015;BME280;57358;51.094;6.760;2022-10-26T13:00:30;101256.28;;;21.33;73.48
70015;BME280;57358;51.094;6.760;2022-10-26T13:08:26;101080.09;;;20.02;74.93
70015;BME280;57358;51.094;6.760;2022-10-26T13:11:02;101239.47;;;21.11;75.28
70015;BME280;57358;51.094;6.760;2022-10-26T13:13:30;101151.56;;;20.48;75.10
70015;BME280;57358;51.094;6.760;2022-10-26T13:15:59;101278.88;;;21.29;75.31
70015;BME280;57358;51.094;6.760;2022-10-26T13:18:26;101268.88;;;21.21;75.92
70015;BME280;57358;51.094;6.760;2022-10-26T13:21:11;101254.81;;;21.19;76.18
70015;BME280;57358;51.094;6.760;2022-10-26T13:23:40;101250.31;;;21.20;75.90
70015;BME280;57358;51.094;6.760;2022-10-26T13:26:10;101230.03;;;20.98;76.52
70015;BME280;57358;51.094;6.760;2022-10-26T13:33:37;101280.44;;;21.31;76.60
70015;BME280;57358;51.094;6.760;2022-10-26T13:36:17;101262.72;;;21.40;76.37
70015;BME280;57358;51.094;6.760;2022-10-26T13:38:45;101288.13;;;21.56;76.21
70015;BME280;57358;51.094;6.760;2022-10-26T13:41:24;101245.25;;;21.17;77.03
70015;BME280;57358;51.094;6.760;2022-10-26T13:43:53;101214.97;;;20.97;76.39
70015;BME280;57358;51.094;6.760;2022-10-26T13:46:24;101277.44;;;21.15;75.17
70015;BME280;57358;51.094;6.760;2022-10-26T13:48:53;101188.47;;;20.43;76.51
70015;BME280;57358;51.094;6.760;2022-10-26T13:51:44;101284.22;;;20.98;76.90
70015;BME280;57358;51.094;6.760;2022-10-26T13:54:29;101310.53;;;21.03;78.01
70015;BME280;57358;51.094;6.760;2022-10-26T13:59:47;101188.34;;;20.24;77.63
70015;BME280;57358;51.094;6.760;2022-10-26T14:02:22;101249.56;;;20.56;77.33
70015;BME280;57358;51.094;6.760;2022-10-26T14:05:00;101209.38;;;20.17;77.71
70015;BME280;57358;51.094;6.760;2022-10-26T14:07:38;101264.88;;;20.54;77.91
70015;BME280;57358;51.094;6.760;2022-10-26T14:10:39;101314.47;;;20.78;76.73
70015;BME280;57358;51.094;6.760;2022-10-26T14:13:15;101294.69;;;20.59;77.56
70015;BME280;57358;51.094;6.760;2022-10-26T14:15:43;101307.50;;;20.65;76.83
70015;BME280;57358;51.094;6.760;2022-10-26T14:18:21;101298.75;;;20.42;77.50
70015;BME280;57358;51.094;6.760;2022-10-26T14:23:26;101314.66;;;20.32;78.21
70015;BME280;57358;51.094;6.760;2022-10-26T14:25:54;101271.94;;;20.02;78.55
70015;BME280;57358;51.094;6.760;2022-10-26T14:28:30;101311.94;;;20.23;78.93
70015;BME280;57358;51.094;6.760;2022-10-26T14:31:22;101322.97;;;20.18;79.13
70015;BME280;57358;51.094;6.760;2022-10-26T14:33:50;101237.28;;;19.58;80.04
70015;BME280;57358;51.094;6.760;2022-10-26T14:36:19;101331.03;;;20.07;78.96
70015;BME280;57358;51.094;6.760;2022-10-26T14:38:49;101321.94;;;19.98;80.49
70015;BME280;57358;51.094;6.760;2022-10-26T14:41:18;101339.63;;;19.99;80.69
70015;BME280;57358;51.094;6.760;2022-10-26T14:43:45;101343.66;;;19.93;80.55
70015;BME280;57358;51.094;6.760;2022-10-26T14:46:14;101318.75;;;19.72;80.42
70015;BME280;57358;51.094;6.760;2022-10-26T14:48:53;101335.44;;;19.74;80.86
70015;BME280;57358;51.094;6.760;2022-10-26T14:51:28;101297.34;;;19.51;81.67
70015;BME280;57358;51.094;6.760;2022-10-26T14:53:57;101351.06;;;19.79;81.38
70015;BME280;57358;51.094;6.760;2022-10-26T14:56:28;101358.94;;;19.69;82.37